Record high temperature 42.2°C Record low temperature -14.6°C Record high gust 76.2 km/h Record high average 96.8 km/h Record daily rain 63.7 mm Record low windchill -17.5°C Record high barometer 1046.0 hPa Record low barometer 960.0 hPa
Daily high pressure 1023.0 hPa Daily low pressure 1018.0 hPa Daily low windchill 0.5°C Daily high heat index 4.7°C Daily high gust speed 12.2 kmh SSE Daily high average speed 11.5 kmh S

This page is updated from recent data collected by a WMR200 weather station Use the Reload or Refresh facility on your browser to retrieve the latest data.

Status report of weather station: Bienvenue sur la Station Météo de Godarville



Weather report/warning/Metars

Alexandroupoli Airport , Greece (LGAL) 40-51N 025-55E 3M
Jan 28, 2022 - 10:20 AM EST / 2022.01.28 1520 UTC
Wind: from the W (260 degrees) at 10 MPH (9 KT):0
Visibility: greater than 7 mile(s):0
Temperature: 48 F (9 C)
Dew Point: 33 F (1 C)
Relative Humidity: 57%
Pressure (altimeter): 30.06 in. Hg (1018 hPa)
ob: LGAL 281520Z 26009KT CAVOK 09/01 Q1018
cycle: 15

Charleroi / Gosselies, Belgium (EBCI) 50-28N 004-27E 192M
Jan 28, 2022 - 10:20 AM EST / 2022.01.28 1520 UTC
Wind: from the SW (220 degrees) at 10 MPH (9 KT):0
Visibility: 3 mile(s):0
Sky conditions: mostly cloudy
Weather: mist
Temperature: 39 F (4 C)
Dew Point: 35 F (2 C)
Relative Humidity: 86%
Pressure (altimeter): 30.56 in. Hg (1035 hPa)
ob: EBCI 281520Z 22009KT 5000 BR FEW004 BKN005 04/02 Q1035 NOSIG
cycle: 15

Bruxelles National, Belgium (EBBR) 50-54N 004-32E 58M
Jan 28, 2022 - 10:20 AM EST / 2022.01.28 1520 UTC
Wind: from the WSW (250 degrees) at 5 MPH (4 KT):0
Visibility: 3 mile(s):0
Sky conditions: mostly cloudy
Temperature: 42 F (6 C)
Dew Point: 39 F (4 C)
Relative Humidity: 86%
Pressure (altimeter): 30.56 in. Hg (1035 hPa)
ob: EBBR 281520Z 25004KT 6000 BKN007 06/04 Q1035 NOSIG
cycle: 15

Koksijde, Belgium (EBFN) 51-05N 002-39E 9M
Jan 28, 2022 - 10:33 AM EST / 2022.01.28 1533 UTC
Wind: from the SW (230 degrees) at 8 MPH (7 KT):0
Visibility: greater than 7 mile(s):0
Sky conditions: mostly cloudy
Temperature: 46 F (8 C)
Dew Point: 41 F (5 C)
Relative Humidity: 81%
Pressure (altimeter): 30.53 in. Hg (1034 hPa)
ob: EBFN 281533Z 23007KT 9999 FEW015 BKN035 08/05 Q1034 BLU FCST CANCEL
cycle: 15

Poznan, Poland (EPPO) 52-25N 016-50E 92M
Jan 28, 2022 - 10:30 AM EST / 2022.01.28 1530 UTC
Wind: from the NW (310 degrees) at 12 MPH (10 KT):0
Visibility: greater than 7 mile(s):0
Sky conditions: partly cloudy
Temperature: 37 F (3 C)
Dew Point: 28 F (-2 C)
Relative Humidity: 69%
Pressure (altimeter): 30.18 in. Hg (1022 hPa)
ob: EPPO 281530Z 31010KT 9999 SCT034 03/M02 Q1022 
cycle: 15



Coucher du Soleil:
17:26:45

Lever de Lune:
03:44:49 27/01/22

Coucher de Lune:
12:23:45 27/01/22

Premier Quartier 9 janvier 2022
Pleine Lune 17 janvier 2022
Dernier Quartier 25 janvier 2022
Nouvelle Lune 1 février 2022
Âge de lune : 24 jours,17 heures,10 minutes,24%
Les heures du jour possible étaient aujourd’hui 09:02